Time;durP1;ratioP1;P1;durP2;ratioP2;P2;SDS_P1;SDS_P2;PMS_P1;PMS_P2;Temp;Humidity;BMP_temperature;BMP_pressure;BME280_temperature;BME280_humidity;BME280_pressure;Samples;Min_cycle;Max_cycle;Signal;HPM_P1;HPM_P2
2021/11/22 00:01:07;;;;;;;10.17;9.17;;;6.50;95.60;;;;;;5044524;28;20189;-89
2021/11/22 00:03:33;;;;;;;11.03;9.93;;;6.50;95.90;;;;;;5060273;28;20197;-88
2021/11/22 00:05:59;;;;;;;11.47;10.27;;;6.40;96.80;;;;;;5053841;28;20693;-88
2021/11/22 00:08:25;;;;;;;9.87;8.87;;;6.30;97.80;;;;;;5052487;28;21378;-88
2021/11/22 00:10:51;;;;;;;12.67;10.03;;;6.20;98.60;;;;;;5055212;28;20650;-88
2021/11/22 00:13:17;;;;;;;10.77;9.60;;;6.20;98.40;;;;;;5049477;28;20263;-88
2021/11/22 00:15:43;;;;;;;10.67;9.57;;;6.20;98.30;;;;;;5057782;28;20203;-88
2021/11/22 00:18:09;;;;;;;11.17;10.07;;;6.20;98.00;;;;;;5055711;28;20204;-88
2021/11/22 00:20:35;;;;;;;11.43;10.23;;;6.30;98.40;;;;;;5066650;28;20221;-88
2021/11/22 00:23:01;;;;;;;12.83;11.60;;;6.30;98.90;;;;;;5053288;28;20352;-88
2021/11/22 00:25:27;;;;;;;12.57;11.27;;;6.20;99.90;;;;;;5039631;28;20761;-89
2021/11/22 00:27:52;;;;;;;12.33;11.10;;;6.20;99.90;;;;;;5041108;28;20222;-88
2021/11/22 00:30:18;;;;;;;13.80;12.37;;;6.20;99.90;;;;;;5050356;28;20208;-88
2021/11/22 00:32:45;;;;;;;12.57;11.27;;;6.10;99.90;;;;;;5055910;28;20187;-89
2021/11/22 00:35:14;;;;;;;13.10;11.90;;;6.10;99.90;;;;;;5047992;28;20192;-88
2021/11/22 00:37:41;;;;;;;15.03;13.43;;;6.00;99.90;;;;;;5060022;28;20199;-88
2021/11/22 00:40:13;;;;;;;13.73;12.33;;;6.00;99.90;;;;;;5061146;28;20247;-88
2021/11/22 00:42:42;;;;;;;13.93;12.43;;;6.00;99.90;;;;;;5049623;28;20225;-89
2021/11/22 00:45:08;;;;;;;14.27;12.87;;;6.00;99.90;;;;;;5034807;28;20220;-89
2021/11/22 00:47:35;;;;;;;13.20;11.83;;;6.00;99.90;;;;;;5056737;28;20184;-89
2021/11/22 00:50:02;;;;;;;14.43;12.93;;;6.00;99.90;;;;;;5028069;28;20646;-90
2021/11/22 00:52:28;;;;;;;13.57;12.23;;;6.00;99.90;;;;;;5053612;28;20608;-89
2021/11/22 00:54:54;;;;;;;14.27;12.80;;;6.00;99.90;;;;;;5043026;28;20189;-90
2021/11/22 00:57:19;;;;;;;13.07;11.83;;;6.00;99.90;;;;;;5036698;28;20195;-89
2021/11/22 00:59:47;;;;;;;13.20;11.90;;;6.00;99.90;;;;;;5050359;28;20330;-89
2021/11/22 01:02:12;;;;;;;13.37;11.70;;;6.00;99.90;;;;;;5029705;28;20192;-90
2021/11/22 01:04:38;;;;;;;11.70;10.50;;;6.00;99.90;;;;;;5068048;28;20327;-88
2021/11/22 01:07:04;;;;;;;11.13;10.03;;;6.00;99.90;;;;;;5073508;28;20224;-89
2021/11/22 01:09:31;;;;;;;10.93;9.83;;;6.00;99.90;;;;;;5038383;28;20738;-89
2021/11/22 01:11:57;;;;;;;11.37;10.17;;;5.90;99.90;;;;;;5065598;28;20214;-89
2021/11/22 01:14:23;;;;;;;11.60;10.47;;;5.90;99.90;;;;;;5055160;28;20222;-88
2021/11/22 01:16:49;;;;;;;10.87;9.77;;;5.90;99.90;;;;;;5078948;28;20191;-89
2021/11/22 01:19:15;;;;;;;11.80;10.70;;;5.90;99.90;;;;;;5063593;28;20718;-89
2021/11/22 01:21:41;;;;;;;11.80;10.63;;;5.90;99.90;;;;;;5060036;28;20195;-89
2021/11/22 01:24:07;;;;;;;11.47;10.33;;;6.00;99.90;;;;;;5045094;28;20205;-89
2021/11/22 01:26:32;;;;;;;10.90;9.83;;;6.00;99.90;;;;;;5058772;28;20311;-89
2021/11/22 01:28:58;;;;;;;10.17;9.00;;;6.10;99.90;;;;;;5058029;28;20218;-89
2021/11/22 01:31:24;;;;;;;10.70;9.60;;;6.10;99.90;;;;;;5048191;28;20199;-89
2021/11/22 01:33:50;;;;;;;9.97;8.60;;;6.10;99.90;;;;;;5054864;28;20218;-89
2021/11/22 01:36:16;;;;;;;10.00;9.00;;;6.00;99.90;;;;;;5055684;28;20415;-90
2021/11/22 01:38:41;;;;;;;8.90;8.10;;;6.10;99.90;;;;;;5055322;28;20718;-89
2021/11/22 01:41:07;;;;;;;10.47;9.43;;;6.10;99.90;;;;;;5034031;28;20279;-89
2021/11/22 01:43:34;;;;;;;9.63;8.73;;;6.20;99.90;;;;;;5053028;28;20645;-89
2021/11/22 01:46:00;;;;;;;10.03;9.03;;;6.30;99.90;;;;;;5051603;28;20223;-90
2021/11/22 01:48:26;;;;;;;9.70;8.70;;;6.20;99.90;;;;;;5055277;28;20426;-89
2021/11/22 01:50:53;;;;;;;8.93;8.13;;;6.20;99.90;;;;;;5025790;28;20207;-89
2021/11/22 01:53:20;;;;;;;9.17;8.27;;;6.20;99.90;;;;;;5058358;28;20188;-89
2021/11/22 01:55:47;;;;;;;8.97;8.03;;;6.20;99.90;;;;;;5058791;28;20570;-89
2021/11/22 01:58:13;;;;;;;9.10;8.30;;;6.20;99.90;;;;;;5056518;28;20184;-89
2021/11/22 02:00:43;;;;;;;8.47;7.43;;;6.20;99.90;;;;;;5062873;28;20214;-89
2021/11/22 02:03:09;;;;;;;8.57;7.77;;;6.20;99.90;;;;;;5039178;28;20204;-89
2021/11/22 02:05:36;;;;;;;9.30;8.40;;;6.20;99.90;;;;;;5047427;28;20216;-90
2021/11/22 02:08:02;;;;;;;9.07;8.27;;;6.20;99.90;;;;;;5053784;28;20193;-89
2021/11/22 02:10:28;;;;;;;8.93;8.03;;;6.10;99.90;;;;;;5054259;28;20528;-89
2021/11/22 02:12:54;;;;;;;9.07;7.93;;;6.20;99.90;;;;;;5049509;28;20305;-89
2021/11/22 02:15:21;;;;;;;9.17;8.20;;;6.10;99.90;;;;;;5049864;28;20185;-89
2021/11/22 02:17:49;;;;;;;11.33;8.40;;;6.10;99.90;;;;;;5030526;28;20197;-89
2021/11/22 02:20:18;;;;;;;8.10;7.30;;;6.00;99.90;;;;;;5039124;28;20282;-89
2021/11/22 02:22:46;;;;;;;8.87;8.00;;;6.00;99.90;;;;;;5019546;28;20197;-89
2021/11/22 02:25:14;;;;;;;7.57;6.77;;;6.10;99.90;;;;;;5054030;28;20262;-89
2021/11/22 02:27:41;;;;;;;8.33;7.53;;;6.00;99.90;;;;;;5035403;28;20565;-90
2021/11/22 02:30:09;;;;;;;7.33;6.63;;;6.10;99.90;;;;;;5065146;28;20208;-90
2021/11/22 02:32:40;;;;;;;6.93;6.20;;;6.10;99.90;;;;;;5037371;28;20227;-89
2021/11/22 02:35:09;;;;;;;8.13;6.47;;;6.10;99.90;;;;;;5065843;28;20184;-89
2021/11/22 02:37:35;;;;;;;6.60;6.00;;;6.20;99.90;;;;;;5048552;28;20192;-89
2021/11/22 02:40:02;;;;;;;6.77;6.13;;;6.20;99.90;;;;;;5057456;28;20212;-89
2021/11/22 02:42:30;;;;;;;7.17;6.30;;;6.20;99.90;;;;;;5056546;28;20254;-89
2021/11/22 02:44:58;;;;;;;7.10;6.40;;;6.30;99.90;;;;;;5055966;28;20211;-89
2021/11/22 02:47:24;;;;;;;6.87;6.27;;;6.30;99.90;;;;;;5057689;28;20188;-89
2021/11/22 02:49:50;;;;;;;7.73;6.97;;;6.30;99.90;;;;;;5048476;28;20287;-89
2021/11/22 02:52:16;;;;;;;7.73;7.03;;;6.20;99.90;;;;;;5051285;28;20184;-89
2021/11/22 02:54:43;;;;;;;7.67;6.17;;;6.20;99.90;;;;;;5060848;28;20208;-90
2021/11/22 02:57:10;;;;;;;8.37;7.20;;;6.20;99.90;;;;;;5050321;28;20231;-89
2021/11/22 02:59:39;;;;;;;7.40;6.53;;;6.20;99.90;;;;;;5037600;28;20219;-89
2021/11/22 03:02:07;;;;;;;7.60;6.90;;;6.20;99.90;;;;;;5050178;28;20236;-89
2021/11/22 03:04:38;;;;;;;7.40;6.70;;;6.20;99.90;;;;;;5071723;28;20303;-90
2021/11/22 03:07:04;;;;;;;7.23;6.63;;;6.20;99.90;;;;;;5035954;28;20556;-90
2021/11/22 03:09:30;;;;;;;8.63;6.77;;;6.20;99.90;;;;;;5057631;28;20208;-89
2021/11/22 03:11:57;;;;;;;7.10;6.40;;;6.20;99.90;;;;;;5035706;28;20200;-89
2021/11/22 03:14:25;;;;;;;7.53;6.83;;;6.20;99.90;;;;;;5065758;28;20649;-90
2021/11/22 03:16:51;;;;;;;9.67;6.63;;;6.20;99.90;;;;;;5047349;28;20699;-89
2021/11/22 03:19:17;;;;;;;7.30;6.70;;;6.20;99.90;;;;;;5054720;28;20208;-89
2021/11/22 03:21:44;;;;;;;7.63;6.93;;;6.20;99.90;;;;;;5063446;28;20524;-89
2021/11/22 03:24:10;;;;;;;7.03;6.43;;;6.10;99.90;;;;;;5038936;28;20234;-90
2021/11/22 03:26:36;;;;;;;7.10;6.40;;;6.10;99.90;;;;;;5059078;28;20208;-89
2021/11/22 03:29:02;;;;;;;7.27;6.53;;;6.10;99.90;;;;;;5053476;28;20216;-90
2021/11/22 03:31:28;;;;;;;7.43;6.73;;;6.10;99.90;;;;;;5055640;28;20265;-89
2021/11/22 03:33:53;;;;;;;7.97;7.17;;;6.10;99.90;;;;;;5052528;28;20615;-90
2021/11/22 03:36:19;;;;;;;7.03;6.43;;;6.20;99.90;;;;;;5042294;28;20283;-90
2021/11/22 03:38:45;;;;;;;7.20;6.60;;;6.10;99.90;;;;;;5060006;28;20731;-90
2021/11/22 03:41:15;;;;;;;6.90;6.30;;;6.20;99.90;;;;;;5048725;28;20203;-89
2021/11/22 03:43:59;;;;;;;7.20;6.50;;;6.20;99.90;;;;;;5042911;28;20207;-88
2021/11/22 03:46:26;;;;;;;6.47;5.93;;;6.30;99.90;;;;;;5080775;28;20216;-89
2021/11/22 03:48:52;;;;;;;7.30;6.60;;;6.30;99.90;;;;;;5063413;28;20215;-90
2021/11/22 03:51:18;;;;;;;6.00;5.50;;;6.30;99.90;;;;;;5061430;28;20280;-90
2021/11/22 03:53:44;;;;;;;6.40;5.77;;;6.10;99.90;;;;;;5074702;28;20189;-89
2021/11/22 03:56:10;;;;;;;6.47;5.87;;;6.10;99.90;;;;;;5077868;28;20272;-90
2021/11/22 03:58:36;;;;;;;5.73;5.23;;;6.20;99.90;;;;;;5063258;28;20862;-90
2021/11/22 04:01:03;;;;;;;6.00;5.50;;;6.20;99.90;;;;;;5037032;28;20188;-90
2021/11/22 04:03:29;;;;;;;6.10;5.50;;;6.20;99.90;;;;;;5040494;28;20180;-89
2021/11/22 04:05:55;;;;;;;5.97;5.47;;;6.10;99.90;;;;;;5057078;28;20230;-90
2021/11/22 04:08:21;;;;;;;6.37;5.77;;;6.10;99.90;;;;;;5033308;28;20191;-90
2021/11/22 04:10:47;;;;;;;5.97;5.47;;;6.10;99.90;;;;;;5065222;28;20224;-90
2021/11/22 04:13:13;;;;;;;6.40;5.40;;;6.10;99.90;;;;;;5047283;28;20189;-89
2021/11/22 04:15:39;;;;;;;5.07;4.57;;;6.20;99.90;;;;;;5047829;28;20224;-90
2021/11/22 04:18:06;;;;;;;5.33;4.83;;;6.20;99.90;;;;;;5052207;28;20212;-89
2021/11/22 04:20:32;;;;;;;6.10;5.60;;;6.20;99.90;;;;;;5050393;28;20199;-90
2021/11/22 04:22:58;;;;;;;6.60;6.00;;;6.30;99.90;;;;;;5052091;28;20258;-90
2021/11/22 04:25:24;;;;;;;5.53;5.03;;;6.30;99.90;;;;;;5052520;28;20303;-89
2021/11/22 04:27:50;;;;;;;5.60;5.10;;;6.40;99.90;;;;;;5031450;28;20703;-90
2021/11/22 04:30:17;;;;;;;5.83;5.23;;;6.30;99.90;;;;;;5056386;28;20207;-90
2021/11/22 04:32:43;;;;;;;6.60;6.00;;;6.30;99.90;;;;;;5039511;28;20231;-90
2021/11/22 04:35:11;;;;;;;6.50;5.90;;;6.40;99.90;;;;;;5060700;28;20568;-89
2021/11/22 04:37:37;;;;;;;5.90;5.40;;;6.40;99.90;;;;;;5057021;28;20218;-89
2021/11/22 04:40:05;;;;;;;7.07;6.37;;;6.40;99.90;;;;;;5052230;28;20232;-90
2021/11/22 04:42:31;;;;;;;7.07;6.37;;;6.40;99.90;;;;;;5044082;28;20210;-90
2021/11/22 04:44:57;;;;;;;7.70;7.00;;;6.40;99.90;;;;;;5041397;28;20563;-89
2021/11/22 04:47:23;;;;;;;8.27;7.40;;;6.40;99.90;;;;;;5053307;28;20196;-89
2021/11/22 04:49:50;;;;;;;7.97;7.17;;;6.40;99.90;;;;;;5055354;28;20219;-90
2021/11/22 04:52:17;;;;;;;7.67;6.87;;;6.40;99.90;;;;;;5056866;28;20345;-90
2021/11/22 04:54:43;;;;;;;8.93;7.10;;;6.40;99.90;;;;;;5073572;28;20191;-89
2021/11/22 04:57:09;;;;;;;8.23;7.43;;;6.40;99.90;;;;;;5065366;28;20219;-90
2021/11/22 04:59:36;;;;;;;9.00;8.07;;;6.20;99.90;;;;;;5065844;28;21051;-90
2021/11/22 05:02:02;;;;;;;7.90;7.17;;;6.20;99.90;;;;;;5056083;28;20192;-90
2021/11/22 05:04:28;;;;;;;9.10;8.27;;;6.30;99.90;;;;;;5058371;28;20198;-90
2021/11/22 05:06:54;;;;;;;7.90;7.10;;;6.40;99.90;;;;;;5066357;28;20212;-89
2021/11/22 05:09:20;;;;;;;8.53;7.60;;;6.40;99.90;;;;;;5056854;28;20212;-89
2021/11/22 05:11:50;;;;;;;8.10;7.30;;;6.40;99.90;;;;;;5056221;28;20288;-90
2021/11/22 05:14:16;;;;;;;10.40;9.30;;;6.50;99.90;;;;;;5051022;28;20247;-90
2021/11/22 05:16:44;;;;;;;8.80;8.00;;;6.50;99.90;;;;;;5055932;28;20283;-90
2021/11/22 05:19:11;;;;;;;8.30;7.50;;;6.50;99.90;;;;;;5050458;28;20316;-90
2021/11/22 05:21:37;;;;;;;9.87;8.97;;;6.40;99.90;;;;;;5060494;28;20188;-90
2021/11/22 05:24:04;;;;;;;9.87;8.13;;;6.40;99.90;;;;;;5057021;28;20196;-89
2021/11/22 05:26:31;;;;;;;8.77;7.83;;;6.30;99.90;;;;;;5050037;28;20230;-90
2021/11/22 05:29:01;;;;;;;9.07;8.27;;;6.30;99.90;;;;;;5053527;28;20208;-90
2021/11/22 05:31:27;;;;;;;9.53;8.30;;;6.30;99.90;;;;;;5054652;28;20191;-90
2021/11/22 05:33:54;;;;;;;10.30;9.23;;;6.40;99.90;;;;;;5056971;28;20203;-89
2021/11/22 05:36:20;;;;;;;14.20;11.37;;;6.30;99.90;;;;;;5060598;28;20200;-89
2021/11/22 05:38:47;;;;;;;11.10;9.80;;;6.40;99.90;;;;;;5031355;28;20276;-89
2021/11/22 05:41:13;;;;;;;11.27;9.73;;;6.40;99.90;;;;;;5058580;28;20242;-89
2021/11/22 05:43:39;;;;;;;10.83;9.73;;;6.50;99.90;;;;;;5046747;28;20536;-89
2021/11/22 05:46:06;;;;;;;14.37;11.77;;;6.60;99.90;;;;;;5054057;28;20302;-89
2021/11/22 05:48:32;;;;;;;12.87;10.80;;;6.50;99.90;;;;;;5052558;28;20188;-90
2021/11/22 05:51:00;;;;;;;11.53;10.10;;;6.40;99.90;;;;;;5048164;28;20269;-90
2021/11/22 05:53:32;;;;;;;11.03;9.93;;;6.30;99.90;;;;;;5041220;28;20279;-85
2021/11/22 05:55:58;;;;;;;9.73;8.83;;;6.40;99.90;;;;;;5060833;28;20214;-88
2021/11/22 05:58:24;;;;;;;9.17;8.27;;;6.50;99.90;;;;;;5056322;28;20674;-88
2021/11/22 06:00:49;;;;;;;8.63;7.73;;;6.60;99.90;;;;;;5062809;28;20227;-88
2021/11/22 06:03:16;;;;;;;8.03;7.23;;;6.50;99.90;;;;;;5045922;28;20673;-88
2021/11/22 06:05:42;;;;;;;9.07;8.17;;;6.40;99.90;;;;;;5059525;28;20280;-88
2021/11/22 06:08:08;;;;;;;9.23;8.33;;;6.50;99.90;;;;;;5056628;28;20188;-88
2021/11/22 06:10:34;;;;;;;7.80;7.00;;;6.50;99.90;;;;;;5039791;28;20208;-88
2021/11/22 06:13:00;;;;;;;8.47;7.67;;;6.50;99.90;;;;;;5058218;28;20196;-88
2021/11/22 06:15:26;;;;;;;8.97;8.07;;;6.50;99.90;;;;;;5046745;28;20187;-88
2021/11/22 06:17:52;;;;;;;10.50;9.37;;;6.50;99.90;;;;;;5038541;28;20535;-88
2021/11/22 06:20:18;;;;;;;10.17;9.17;;;6.50;99.90;;;;;;5062628;28;20222;-88
2021/11/22 06:22:44;;;;;;;9.27;8.37;;;6.50;99.90;;;;;;5055957;28;20193;-88
2021/11/22 06:25:10;;;;;;;9.63;8.63;;;6.40;99.90;;;;;;5066960;28;20192;-89
2021/11/22 06:27:37;;;;;;;12.07;9.10;;;6.50;99.90;;;;;;5078215;28;20220;-88
2021/11/22 06:30:06;;;;;;;10.57;9.03;;;6.50;99.90;;;;;;5062184;28;20208;-88
2021/11/22 06:32:32;;;;;;;9.93;8.93;;;6.40;99.90;;;;;;5051708;28;20558;-88
2021/11/22 06:34:58;;;;;;;9.53;8.53;;;6.30;99.90;;;;;;5077597;28;20185;-89
2021/11/22 06:37:26;;;;;;;9.33;8.33;;;6.40;99.90;;;;;;5077321;28;20172;-89
2021/11/22 06:39:55;;;;;;;10.90;9.83;;;6.40;99.90;;;;;;5059091;28;20274;-88
2021/11/22 06:42:21;;;;;;;11.37;9.97;;;6.40;99.90;;;;;;5059193;28;20187;-88
2021/11/22 06:44:48;;;;;;;11.67;10.50;;;6.50;99.90;;;;;;5056852;28;20275;-88
2021/11/22 06:47:15;;;;;;;13.27;11.67;;;6.50;99.90;;;;;;5056624;28;20240;-89
2021/11/22 06:49:41;;;;;;;11.73;10.53;;;6.50;99.90;;;;;;5064229;28;20338;-89
2021/11/22 06:52:07;;;;;;;11.17;9.53;;;6.50;99.90;;;;;;5065246;28;20239;-89
2021/11/22 06:54:33;;;;;;;13.30;11.53;;;6.40;99.90;;;;;;5061112;28;20192;-89
2021/11/22 06:56:59;;;;;;;16.07;13.77;;;6.50;99.90;;;;;;5056772;28;20204;-90
2021/11/22 06:59:27;;;;;;;13.53;11.03;;;6.40;99.90;;;;;;5058376;28;20258;-89
2021/11/22 07:01:54;;;;;;;14.60;11.50;;;6.50;99.90;;;;;;5061470;28;20191;-89
2021/11/22 07:04:19;;;;;;;11.73;10.50;;;6.50;99.90;;;;;;5061340;28;20184;-89
2021/11/22 07:06:45;;;;;;;11.23;10.07;;;6.50;99.90;;;;;;5063344;28;20287;-89
2021/11/22 07:09:11;;;;;;;12.90;10.37;;;6.40;99.90;;;;;;5063089;28;20230;-89
2021/11/22 07:11:36;;;;;;;13.03;11.73;;;6.40;99.90;;;;;;5064061;28;21301;-89
2021/11/22 07:14:04;;;;;;;12.57;11.27;;;6.50;99.90;;;;;;5043175;28;20208;-89
2021/11/22 07:16:31;;;;;;;13.87;11.13;;;6.50;99.90;;;;;;5072710;28;20224;-89
2021/11/22 07:18:57;;;;;;;13.20;11.83;;;6.50;99.90;;;;;;5064601;28;20211;-89
2021/11/22 07:21:23;;;;;;;13.30;11.53;;;6.50;99.90;;;;;;5048582;28;20563;-89
2021/11/22 07:23:49;;;;;;;12.93;11.57;;;6.50;99.90;;;;;;5063012;28;20592;-89
2021/11/22 07:26:15;;;;;;;12.77;11.40;;;6.60;99.90;;;;;;5053244;28;20208;-89
2021/11/22 07:28:41;;;;;;;15.97;11.60;;;6.50;99.90;;;;;;5052358;28;20193;-89
2021/11/22 07:31:07;;;;;;;16.60;12.33;;;6.60;99.90;;;;;;5052537;28;20189;-89
2021/11/22 07:33:33;;;;;;;14.43;11.70;;;6.50;99.90;;;;;;5055843;28;20180;-89
2021/11/22 07:35:59;;;;;;;13.93;12.00;;;6.60;99.90;;;;;;5037738;28;20193;-89
2021/11/22 07:38:25;;;;;;;17.83;15.93;;;6.70;99.90;;;;;;5054568;28;20202;-90
2021/11/22 07:40:51;;;;;;;18.47;15.83;;;6.70;99.90;;;;;;5049079;28;20215;-89
2021/11/22 07:43:17;;;;;;;16.37;14.07;;;6.60;99.90;;;;;;5049837;28;20189;-89
2021/11/22 07:45:44;;;;;;;18.80;15.30;;;6.60;99.90;;;;;;5052872;28;20246;-89
2021/11/22 07:48:11;;;;;;;17.13;13.97;;;6.60;99.90;;;;;;5053185;28;20547;-89
2021/11/22 07:50:38;;;;;;;17.30;13.07;;;6.60;99.90;;;;;;5053676;28;20227;-89
2021/11/22 07:53:04;;;;;;;16.27;13.17;;;6.60;99.90;;;;;;5051107;28;20188;-89
2021/11/22 07:55:30;;;;;;;18.03;13.57;;;6.60;99.90;;;;;;5033140;28;20215;-89
2021/11/22 07:57:56;;;;;;;18.43;16.50;;;6.60;99.90;;;;;;5037668;28;20204;-89
2021/11/22 08:00:25;;;;;;;19.40;14.27;;;6.50;99.90;;;;;;5050424;28;20219;-89
2021/11/22 08:02:51;;;;;;;17.27;11.30;;;6.60;99.90;;;;;;5034571;28;20188;-87
2021/11/22 08:05:18;;;;;;;14.87;11.03;;;6.60;99.90;;;;;;5035714;28;20298;-89
2021/11/22 08:07:43;;;;;;;15.03;11.93;;;6.50;99.90;;;;;;5052852;28;20565;-88
2021/11/22 08:10:33;;;;;;;13.03;10.83;;;6.50;99.90;;;;;;5053013;28;20295;-88
2021/11/22 08:13:04;;;;;;;16.33;10.97;;;6.50;99.90;;;;;;5051915;28;20180;-88
2021/11/22 08:15:33;;;;;;;14.43;10.67;;;6.50;99.90;;;;;;5038283;28;20767;-88
2021/11/22 08:18:02;;;;;;;13.47;9.60;;;6.40;99.90;;;;;;5048766;28;20662;-88
2021/11/22 08:20:29;;;;;;;14.67;11.40;;;6.50;99.90;;;;;;5031716;28;20299;-88
2021/11/22 08:22:55;;;;;;;12.67;10.23;;;6.50;99.90;;;;;;5052993;28;20210;-88
2021/11/22 08:25:24;;;;;;;13.53;11.23;;;6.50;99.90;;;;;;5046985;28;20712;-87
2021/11/22 08:27:53;;;;;;;15.57;10.40;;;6.50;99.90;;;;;;5033645;28;20184;-88
2021/11/22 08:30:19;;;;;;;13.00;9.33;;;6.50;99.90;;;;;;5055756;28;20265;-88
2021/11/22 08:32:48;;;;;;;10.90;8.43;;;6.60;99.90;;;;;;5061522;28;20195;-90
2021/11/22 08:35:16;;;;;;;11.30;9.17;;;6.50;99.90;;;;;;5053762;28;20199;-88
2021/11/22 08:37:42;;;;;;;13.20;9.63;;;6.50;99.90;;;;;;5036224;28;20555;-88
2021/11/22 08:40:11;;;;;;;11.63;8.80;;;6.50;99.90;;;;;;5055927;28;20255;-88
2021/11/22 08:42:37;;;;;;;9.60;8.27;;;6.50;99.90;;;;;;5046923;28;20222;-88
2021/11/22 08:45:05;;;;;;;16.53;9.83;;;6.50;99.90;;;;;;5046794;28;20271;-90
2021/11/22 08:47:31;;;;;;;13.63;8.70;;;6.60;99.90;;;;;;5076239;28;20196;-90
2021/11/22 08:49:56;;;;;;;9.30;7.70;;;6.60;99.90;;;;;;5054288;28;20204;-88
2021/11/22 08:52:23;;;;;;;13.60;8.83;;;6.50;99.90;;;;;;5073272;28;20191;-88
2021/11/22 08:54:49;;;;;;;12.47;9.30;;;6.60;99.90;;;;;;5063113;28;20180;-88
2021/11/22 08:57:17;;;;;;;9.90;7.80;;;6.60;99.90;;;;;;5060400;28;20176;-90
2021/11/22 08:59:44;;;;;;;12.07;8.53;;;6.60;99.90;;;;;;5075514;28;20224;-89
2021/11/22 09:02:11;;;;;;;13.53;7.93;;;6.50;99.90;;;;;;5071803;28;20188;-89
2021/11/22 09:04:37;;;;;;;11.20;8.60;;;6.60;99.90;;;;;;5065574;28;20198;-89
2021/11/22 09:07:04;;;;;;;10.43;8.03;;;6.50;99.90;;;;;;5085691;28;20211;-90
2021/11/22 09:09:30;;;;;;;10.50;7.70;;;6.50;99.90;;;;;;5055990;28;20207;-91
2021/11/22 09:11:56;;;;;;;12.37;7.73;;;6.50;99.90;;;;;;5064694;28;20202;-88
2021/11/22 09:14:22;;;;;;;11.80;7.93;;;6.50;99.90;;;;;;5061276;28;20585;-91
2021/11/22 09:16:48;;;;;;;13.90;8.33;;;6.50;99.90;;;;;;5077907;28;20286;-90
2021/11/22 09:19:14;;;;;;;15.83;8.73;;;6.60;99.90;;;;;;5081841;28;20243;-89
2021/11/22 09:21:41;;;;;;;15.70;8.60;;;6.60;99.90;;;;;;5067908;28;20215;-88
2021/11/22 09:24:07;;;;;;;13.67;9.40;;;6.70;99.90;;;;;;5072587;28;20885;-88
2021/11/22 09:26:33;;;;;;;11.10;8.73;;;6.70;99.90;;;;;;5052296;28;20301;-88
2021/11/22 09:28:59;;;;;;;12.87;8.90;;;6.70;99.90;;;;;;5059749;28;20253;-88
2021/11/22 09:31:25;;;;;;;14.30;8.50;;;6.70;99.90;;;;;;5062106;28;20177;-89
2021/11/22 09:33:53;;;;;;;12.70;7.33;;;6.80;99.90;;;;;;5056795;28;20202;-88
2021/11/22 09:36:19;;;;;;;12.73;7.77;;;6.80;99.90;;;;;;5058114;28;20286;-88
2021/11/22 09:38:45;;;;;;;11.37;7.93;;;6.80;99.90;;;;;;5054448;28;20222;-88
2021/11/22 09:41:12;;;;;;;10.27;6.97;;;6.90;99.90;;;;;;5049400;28;20200;-88
2021/11/22 09:43:41;;;;;;;9.27;7.27;;;6.90;99.90;;;;;;5045355;28;20221;-89
2021/11/22 09:46:06;;;;;;;13.30;8.23;;;6.80;99.90;;;;;;5054094;28;20273;-88
2021/11/22 09:48:32;;;;;;;9.40;7.50;;;6.80;99.90;;;;;;5032974;28;20283;-88
2021/11/22 09:50:58;;;;;;;10.03;7.53;;;6.80;99.90;;;;;;5042362;28;20282;-87
2021/11/22 09:53:24;;;;;;;9.00;6.77;;;6.80;99.90;;;;;;5064260;28;20204;-89
2021/11/22 09:55:50;;;;;;;9.43;7.10;;;6.80;99.90;;;;;;5057051;28;20200;-88
2021/11/22 09:58:16;;;;;;;9.83;6.77;;;6.90;99.90;;;;;;5063460;28;20209;-89
2021/11/22 10:00:51;;;;;;;11.17;6.90;;;6.90;99.90;;;;;;5052330;28;20375;-88
2021/11/22 10:03:24;;;;;;;11.17;7.67;;;7.00;99.90;;;;;;5045669;28;20456;-88
2021/11/22 10:05:58;;;;;;;10.07;6.83;;;7.00;99.90;;;;;;5053860;28;20281;-88
2021/11/22 10:08:24;;;;;;;8.93;7.17;;;7.00;99.90;;;;;;5051441;28;20546;-88
2021/11/22 10:10:58;;;;;;;8.80;7.30;;;7.00;99.90;;;;;;5058918;28;20216;-88
2021/11/22 10:13:32;;;;;;;7.23;6.33;;;7.10;99.90;;;;;;5064759;28;20184;-88
2021/11/22 10:16:15;;;;;;;8.07;6.70;;;7.10;99.90;;;;;;5059201;28;20191;-88
2021/11/22 10:18:51;;;;;;;8.53;6.97;;;7.20;99.90;;;;;;5062656;28;20574;-88
2021/11/22 10:21:23;;;;;;;11.80;6.73;;;7.20;99.90;;;;;;5061688;28;20604;-88
2021/11/22 10:23:51;;;;;;;6.87;5.93;;;7.30;99.90;;;;;;5043432;28;20287;-88
2021/11/22 10:26:17;;;;;;;11.13;6.00;;;7.40;99.90;;;;;;5057838;28;20235;-89
2021/11/22 10:28:52;;;;;;;8.57;6.03;;;7.20;99.90;;;;;;5051221;28;20536;-88
2021/11/22 10:31:21;;;;;;;9.27;6.63;;;7.20;99.90;;;;;;5055344;28;20404;-88
2021/11/22 10:33:49;;;;;;;8.40;5.97;;;7.20;99.90;;;;;;5066464;28;20184;-88
2021/11/22 10:36:19;;;;;;;10.00;5.27;;;7.20;99.90;;;;;;5035560;28;20736;-88
2021/11/22 10:38:50;;;;;;;7.90;5.73;;;7.10;99.90;;;;;;5058852;28;20652;-88
2021/11/22 10:41:20;;;;;;;10.37;5.93;;;7.10;99.90;;;;;;5053118;28;20259;-87
2021/11/22 10:43:53;;;;;;;9.03;5.97;;;7.20;99.90;;;;;;5056768;28;20210;-88
2021/11/22 10:46:49;;;;;;;8.03;6.00;;;7.20;99.90;;;;;;5038261;28;20296;-89
2021/11/22 10:49:29;;;;;;;11.43;5.83;;;7.20;99.90;;;;;;5058057;28;20275;-87
2021/11/22 10:52:26;;;;;;;9.33;5.67;;;7.30;99.90;;;;;;5055083;28;20719;-87
2021/11/22 10:54:51;;;;;;;7.27;5.17;;;7.20;99.90;;;;;;5049008;28;20242;-87
2021/11/22 10:57:17;;;;;;;6.93;5.47;;;7.20;99.90;;;;;;5061750;28;20607;-87
2021/11/22 10:59:43;;;;;;;7.40;5.60;;;7.30;99.90;;;;;;5041426;28;20216;-87
2021/11/22 11:02:09;;;;;;;8.70;5.43;;;7.30;99.90;;;;;;5059551;28;20204;-88
2021/11/22 11:04:42;;;;;;;6.17;5.07;;;7.30;99.90;;;;;;5042031;28;20555;-87
2021/11/22 11:07:09;;;;;;;10.30;5.40;;;7.30;99.90;;;;;;5058718;28;20284;-87
2021/11/22 11:09:36;;;;;;;7.63;5.37;;;7.30;99.90;;;;;;5054445;28;20204;-87
2021/11/22 11:12:14;;;;;;;7.20;5.30;;;7.30;99.50;;;;;;5062022;28;20215;-86
2021/11/22 11:14:43;;;;;;;5.87;5.07;;;7.30;99.80;;;;;;5056503;28;20542;-88
2021/11/22 11:17:33;;;;;;;9.37;5.70;;;7.40;99.20;;;;;;5053908;28;20438;-89
2021/11/22 11:20:09;;;;;;;6.93;4.93;;;7.40;98.60;;;;;;5049750;28;20215;-87
2021/11/22 11:22:35;;;;;;;7.93;4.40;;;7.40;99.30;;;;;;5053712;28;20204;-87
2021/11/22 11:25:05;;;;;;;6.50;5.40;;;7.40;98.50;;;;;;5062086;28;20219;-89
2021/11/22 11:27:33;;;;;;;5.90;4.70;;;7.50;99.00;;;;;;5060778;28;20192;-89
2021/11/22 11:29:59;;;;;;;7.27;5.00;;;7.50;98.10;;;;;;5059180;28;20218;-89
2021/11/22 11:32:26;;;;;;;6.33;5.43;;;7.70;98.40;;;;;;5061968;28;20547;-89
2021/11/22 11:34:55;;;;;;;7.20;5.17;;;7.70;97.80;;;;;;5055234;28;20197;-89
2021/11/22 11:37:43;;;;;;;6.40;4.57;;;7.70;97.00;;;;;;5056619;28;20188;-89
2021/11/22 11:40:24;;;;;;;6.33;5.33;;;7.70;96.40;;;;;;5059829;28;20231;-90
2021/11/22 11:43:08;;;;;;;6.23;5.63;;;7.60;94.70;;;;;;5059942;28;20252;-89
2021/11/22 11:45:50;;;;;;;5.13;4.63;;;7.70;95.40;;;;;;5055899;28;20224;-89
2021/11/22 11:48:49;;;;;;;8.53;4.70;;;7.70;95.10;;;;;;5057214;28;20188;-89
2021/11/22 11:51:19;;;;;;;4.73;4.33;;;7.70;95.20;;;;;;5079276;28;20218;-89
2021/11/22 11:54:00;;;;;;;6.97;4.40;;;7.60;93.70;;;;;;5065338;28;20192;-90
2021/11/22 11:56:33;;;;;;;6.20;4.17;;;7.60;93.90;;;;;;5061010;28;20185;-88
2021/11/22 11:59:24;;;;;;;7.30;4.30;;;7.60;94.80;;;;;;5074761;28;20207;-90
2021/11/22 12:02:00;;;;;;;6.37;3.97;;;7.60;94.20;;;;;;5050791;28;20188;-89
2021/11/22 12:04:28;;;;;;;6.80;3.83;;;7.70;94.30;;;;;;5064059;28;20654;-87
2021/11/22 12:06:59;;;;;;;5.13;3.80;;;7.70;93.40;;;;;;5032657;28;20306;-90
2021/11/22 12:09:54;;;;;;;5.37;3.47;;;7.70;93.00;;;;;;5064831;28;20220;-89
2021/11/22 12:12:22;;;;;;;5.63;3.60;;;7.70;92.60;;;;;;5032730;28;20200;-89
2021/11/22 12:14:55;;;;;;;7.70;3.97;;;7.70;93.30;;;;;;5061419;28;20211;-90
2021/11/22 12:17:39;;;;;;;5.30;4.70;;;7.80;92.30;;;;;;5060725;28;20189;-87
2021/11/22 12:20:18;;;;;;;5.13;4.63;;;7.80;92.40;;;;;;5059889;28;20200;-89
2021/11/22 12:22:52;;;;;;;7.67;4.70;;;7.80;91.10;;;;;;5052269;28;20192;-89
2021/11/22 12:25:39;;;;;;;3.53;3.23;;;8.00;91.80;;;;;;5047724;28;20282;-90
2021/11/22 12:28:11;;;;;;;4.17;3.10;;;8.10;89.00;;;;;;5059267;28;20184;-89
2021/11/22 12:30:43;;;;;;;4.93;3.80;;;8.00;90.20;;;;;;5060168;28;20210;-89
2021/11/22 12:33:21;;;;;;;4.67;2.87;;;8.10;89.20;;;;;;5059892;28;20659;-89
2021/11/22 12:35:59;;;;;;;4.17;3.43;;;8.20;90.00;;;;;;5035292;28;20200;-89
2021/11/22 12:38:27;;;;;;;3.43;2.70;;;8.20;88.10;;;;;;5040552;28;20218;-89
2021/11/22 12:40:56;;;;;;;3.03;2.83;;;8.20;87.90;;;;;;5057990;28;20227;-87
2021/11/22 12:43:42;;;;;;;5.07;2.50;;;8.30;88.30;;;;;;5057829;28;20190;-89
2021/11/22 12:46:18;;;;;;;5.03;3.43;;;8.40;87.00;;;;;;5054324;28;20204;-89
2021/11/22 12:48:46;;;;;;;3.30;3.00;;;8.40;88.30;;;;;;5054465;28;20223;-89
2021/11/22 12:51:18;;;;;;;5.20;2.60;;;8.50;87.50;;;;;;5049227;28;20602;-90
2021/11/22 12:54:02;;;;;;;4.07;3.10;;;8.60;86.40;;;;;;5056532;28;20187;-89
2021/11/22 12:56:31;;;;;;;3.23;2.60;;;8.50;86.40;;;;;;5048795;28;20196;-89